Time;durP1;ratioP1;P1;durP2;ratioP2;P2;SDS_P1;SDS_P2;PMS_P1;PMS_P2;Temp;Humidity;BMP_temperature;BMP_pressure;BME280_temperature;BME280_humidity;BME280_pressure;Samples;Min_cycle;Max_cycle;Signal;HPM_P1;HPM_P2
2022/12/29 00:00:00;;;;;;;;;;;;;;;15.25;58.84;99218.38;4916387;28;6955;-73
2022/12/29 00:02:26;;;;;;;;;;;;;;;15.25;58.41;99212.31;4949379;28;9628;-73
2022/12/29 00:04:51;;;;;;;;;;;;;;;15.25;59.07;99208.03;4935615;28;6828;-73
2022/12/29 00:07:18;;;;;;;;;;;;;;;15.32;58.95;99205.53;4953862;28;7091;-73
2022/12/29 00:09:43;;;;;;;;;;;;;;;15.32;58.18;99203.78;4936554;28;6988;-72
2022/12/29 00:12:09;;;;;;;;;;;;;;;15.36;58.48;99208.16;4921808;28;6804;-73
2022/12/29 00:17:18;;;;;;;;;;;;;;;15.38;58.43;99196.13;4981281;28;7388;-73
2022/12/29 00:36:33;;;;;;;;;;;;;;;15.44;57.28;99151.41;4961291;28;6800;-73
2022/12/29 00:44:39;;;;;;;;;;;;;;;15.47;57.11;99156.59;4985167;28;6807;-73
2022/12/29 00:47:05;;;;;;;;;;;;;;;15.49;57.05;99169.53;4941109;28;6960;-73
2022/12/29 00:49:31;;;;;;;;;;;;;;;15.55;57.13;99174.75;4965416;28;7119;-73
2022/12/29 00:52:10;;;;;;;;;;;;;;;15.53;57.24;99166.09;4955103;28;6777;-74
2022/12/29 00:54:39;;;;;;;;;;;;;;;15.57;56.75;99162.72;4990405;28;6816;-73
2022/12/29 00:57:08;;;;;;;;;;;;;;;15.61;56.50;99158.44;4975837;28;7250;-74
2022/12/29 00:59:38;;;;;;;;;;;;;;;15.57;56.21;99170.47;4959036;28;7199;-73
2022/12/29 01:02:05;;;;;;;;;;;;;;;15.59;56.03;99154.94;4966112;28;6872;-74
2022/12/29 01:04:31;;;;;;;;;;;;;;;15.53;56.50;99176.44;4955991;28;6807;-73
2022/12/29 01:06:57;;;;;;;;;;;;;;;15.55;56.30;99172.16;4963053;28;6796;-73
2022/12/29 01:12:08;;;;;;;;;;;;;;;15.55;56.09;99144.59;4960169;28;6804;-73
2022/12/29 01:14:34;;;;;;;;;;;;;;;15.53;56.34;99155.78;4974785;28;6973;-73
2022/12/29 01:17:00;;;;;;;;;;;;;;;15.57;56.06;99162.72;4952359;28;6785;-73
2022/12/29 01:19:26;;;;;;;;;;;;;;;15.60;56.06;99170.47;4961055;28;7018;-74
2022/12/29 01:21:52;;;;;;;;;;;;;;;15.69;55.65;99156.75;4941809;28;6972;-73
2022/12/29 01:24:19;;;;;;;;;;;;;;;15.67;55.25;99146.44;4987234;28;10860;-73
2022/12/29 01:26:46;;;;;;;;;;;;;;;15.69;54.87;99146.41;4966014;28;6851;-73
2022/12/29 01:29:12;;;;;;;;;;;;;;;15.71;55.42;99151.59;4987029;28;6845;-73
2022/12/29 01:31:38;;;;;;;;;;;;;;;15.71;54.79;99143.84;4959353;28;7698;-73
2022/12/29 01:34:04;;;;;;;;;;;;;;;15.69;55.26;99133.50;4990117;28;6966;-74
2022/12/29 01:36:30;;;;;;;;;;;;;;;15.66;54.78;99121.47;4991264;28;7192;-73
2022/12/29 01:38:56;;;;;;;;;;;;;;;15.64;54.75;99130.88;4957578;28;6860;-73
2022/12/29 01:41:23;;;;;;;;;;;;;;;15.58;54.66;99143.78;4961282;28;6962;-73
2022/12/29 01:43:58;;;;;;;;;;;;;;;15.60;55.09;99136.06;4988327;28;6796;-73
2022/12/29 01:46:47;;;;;;;;;;;;;;;15.57;54.86;99136.00;4984863;28;6800;-73
2022/12/29 01:49:21;;;;;;;;;;;;;;;15.55;54.13;99138.59;4968976;28;7173;-72
2022/12/29 01:52:05;;;;;;;;;;;;;;;15.56;54.31;99137.75;4976171;28;7675;-73
2022/12/29 01:54:54;;;;;;;;;;;;;;;15.54;54.13;99158.38;4958229;28;6946;-72
2022/12/29 01:57:29;;;;;;;;;;;;;;;15.59;53.83;99152.38;4981989;28;7359;-72
2022/12/29 02:00:08;;;;;;;;;;;;;;;15.61;53.67;99148.94;4985759;28;6982;-73
2022/12/29 02:02:34;;;;;;;;;;;;;;;15.62;53.55;99122.28;4960019;28;6879;-73
2022/12/29 02:05:13;;;;;;;;;;;;;;;15.66;53.88;99133.50;4950859;28;6998;-73
2022/12/29 02:07:41;;;;;;;;;;;;;;;15.68;53.30;99136.94;4984639;28;6820;-73
2022/12/29 02:10:07;;;;;;;;;;;;;;;15.70;53.65;99127.50;4958301;28;6931;-72
2022/12/29 02:12:33;;;;;;;;;;;;;;;15.67;53.42;99138.69;4955570;28;6905;-73
2022/12/29 02:15:03;;;;;;;;;;;;;;;15.64;53.43;99128.31;4984996;28;6863;-73
2022/12/29 02:17:50;;;;;;;;;;;;;;;15.67;53.67;99120.59;4984636;28;7163;-72
2022/12/29 02:20:53;;;;;;;;;;;;;;;15.66;53.37;99131.78;4968003;28;7307;-73
2022/12/29 02:24:16;;;;;;;;;;;;;;;15.65;53.47;99130.06;4959658;28;6827;-72
2022/12/29 02:26:51;;;;;;;;;;;;;;;15.71;53.46;99113.75;4973414;28;6816;-73
2022/12/29 02:30:00;;;;;;;;;;;;;;;15.73;53.64;99129.22;4955040;28;6895;-73
2022/12/29 02:32:57;;;;;;;;;;;;;;;15.78;53.67;99114.63;4959157;28;7047;-73
2022/12/29 02:36:19;;;;;;;;;;;;;;;15.67;53.37;99123.19;4965402;28;6812;-73
2022/12/29 02:39:04;;;;;;;;;;;;;;;15.44;54.36;99098.91;4957117;28;7315;-73
2022/12/29 02:41:52;;;;;;;;;;;;;;;15.24;55.30;99104.78;4958904;28;7056;-73
2022/12/29 02:44:36;;;;;;;;;;;;;;;15.04;56.07;99105.47;4963435;28;6800;-73
2022/12/29 02:47:29;;;;;;;;;;;;;;;14.91;56.27;99098.47;4958268;28;6820;-74
2022/12/29 02:50:13;;;;;;;;;;;;;;;14.82;56.61;99088.91;4957434;28;6800;-73
2022/12/29 02:54:40;;;;;;;;;;;;;;;14.78;56.41;99088.06;4986741;28;7182;-73
2022/12/29 02:56:07;;;;;;;;;;;;;;;14.78;57.14;99087.16;4954986;28;6828;-73
2022/12/29 02:58:32;;;;;;;;;;;;;;;14.85;57.49;99089.81;4960013;28;7211;-73
2022/12/29 03:01:20;;;;;;;;;;;;;;;14.87;57.69;99087.25;4955977;28;7170;-72
2022/12/29 03:04:20;;;;;;;;;;;;;;;14.88;57.11;99082.97;4987955;28;6808;-73
2022/12/29 03:07:19;;;;;;;;;;;;;;;14.88;57.80;99088.13;4970201;28;7049;-73
2022/12/29 03:10:13;;;;;;;;;;;;;;;14.79;57.11;99083.75;4989932;28;7012;-73
2022/12/29 03:16:29;;;;;;;;;;;;;;;14.87;57.81;99066.63;4960367;28;6800;-72
2022/12/29 03:19:04;;;;;;;;;;;;;;;14.99;57.26;99055.56;4963594;28;8735;-73
2022/12/29 03:24:32;;;;;;;;;;;;;;;15.19;56.48;99067.75;4983092;28;6807;-73
2022/12/29 03:27:03;;;;;;;;;;;;;;;15.26;56.93;99067.81;4974057;28;6962;-73
2022/12/29 03:29:38;;;;;;;;;;;;;;;15.36;56.25;99068.75;4986442;28;6874;-73
2022/12/29 03:32:09;;;;;;;;;;;;;;;15.44;56.14;99065.34;4951215;28;7010;-73
2022/12/29 03:34:38;;;;;;;;;;;;;;;15.52;55.70;99063.66;4949337;28;6980;-73
2022/12/29 03:37:18;;;;;;;;;;;;;;;15.57;55.64;99054.25;4976202;28;6955;-72
2022/12/29 03:39:44;;;;;;;;;;;;;;;15.64;55.50;99039.66;4975565;28;6904;-72
2022/12/29 03:42:25;;;;;;;;;;;;;;;15.62;55.18;99042.22;4981011;28;7747;-73
2022/12/29 03:44:56;;;;;;;;;;;;;;;15.60;55.16;99025.84;4976139;28;6800;-73
2022/12/29 03:47:23;;;;;;;;;;;;;;;15.53;55.42;99021.50;4976444;28;6796;-73
2022/12/29 03:49:50;;;;;;;;;;;;;;;15.49;55.19;99024.94;4948971;28;6800;-73
2022/12/29 03:52:17;;;;;;;;;;;;;;;15.48;55.42;99030.97;4944669;28;6950;-73
2022/12/29 03:54:42;;;;;;;;;;;;;;;15.47;54.99;99032.66;4959435;28;7053;-72
2022/12/29 03:57:10;;;;;;;;;;;;;;;15.46;54.96;99054.16;4976461;28;7003;-72
2022/12/29 03:59:36;;;;;;;;;;;;;;;15.51;54.65;99055.09;4972232;28;8050;-73
2022/12/29 04:02:01;;;;;;;;;;;;;;;15.47;54.96;99047.31;4953814;28;6804;-73
2022/12/29 04:04:27;;;;;;;;;;;;;;;15.51;54.87;99049.03;4967850;28;6844;-73
2022/12/29 04:06:53;;;;;;;;;;;;;;;15.53;55.08;99047.31;4968988;28;6776;-72
2022/12/29 04:09:20;;;;;;;;;;;;;;;15.61;55.08;99019.81;4963585;28;7006;-72
2022/12/29 04:11:45;;;;;;;;;;;;;;;15.71;54.32;99044.00;4968551;28;7195;-73
2022/12/29 04:14:11;;;;;;;;;;;;;;;15.78;54.42;99038.00;4988389;28;7808;-73
2022/12/29 04:16:38;;;;;;;;;;;;;;;15.76;54.38;99029.38;4955096;28;6946;-73
2022/12/29 04:19:07;;;;;;;;;;;;;;;15.74;53.49;99040.53;4958788;28;6792;-72
2022/12/29 04:21:33;;;;;;;;;;;;;;;15.73;53.42;99038.81;4959591;28;6860;-73
2022/12/29 04:23:59;;;;;;;;;;;;;;;15.76;53.45;99051.78;4961818;28;6769;-72
2022/12/29 04:26:25;;;;;;;;;;;;;;;15.75;53.38;99048.31;4957348;28;7053;-73
2022/12/29 04:28:51;;;;;;;;;;;;;;;15.75;53.42;99055.22;4985350;28;6860;-73
2022/12/29 04:31:17;;;;;;;;;;;;;;;15.73;53.41;99049.16;4954429;28;7742;-73
2022/12/29 04:33:43;;;;;;;;;;;;;;;15.78;52.81;99053.47;4976732;28;6796;-73
2022/12/29 04:36:08;;;;;;;;;;;;;;;15.81;53.12;99060.41;4959330;28;6972;-74
2022/12/29 04:38:35;;;;;;;;;;;;;;;15.89;53.09;99063.88;4943312;28;6776;-73
2022/12/29 04:41:01;;;;;;;;;;;;;;;15.88;52.78;99075.06;4942667;28;6788;-73
2022/12/29 04:43:28;;;;;;;;;;;;;;;15.88;52.68;99079.38;4947336;28;7297;-72
2022/12/29 04:45:54;;;;;;;;;;;;;;;15.90;53.15;99073.38;4961278;28;6860;-72
2022/12/29 04:48:19;;;;;;;;;;;;;;;15.93;52.60;99063.09;4943445;28;6852;-72
2022/12/29 04:50:48;;;;;;;;;;;;;;;15.97;52.63;99061.34;4940696;28;6776;-74
2022/12/29 04:53:17;;;;;;;;;;;;;;;16.02;52.82;99074.31;4942771;28;7006;-73
2022/12/29 04:55:42;;;;;;;;;;;;;;;15.95;52.31;99082.03;4946521;28;6971;-73
2022/12/29 04:58:08;;;;;;;;;;;;;;;15.99;52.28;99087.22;4942122;28;6863;-72
2022/12/29 05:00:34;;;;;;;;;;;;;;;16.04;52.20;99064.84;4944857;28;7231;-73
2022/12/29 05:03:00;;;;;;;;;;;;;;;16.05;52.29;99092.44;4956481;28;6784;-73
2022/12/29 05:05:25;;;;;;;;;;;;;;;16.09;52.00;99096.75;4956739;28;6776;-73
2022/12/29 05:07:51;;;;;;;;;;;;;;;16.11;52.08;99082.09;4980276;28;7028;-74
2022/12/29 05:10:17;;;;;;;;;;;;;;;16.08;51.48;99084.69;4950816;28;8093;-72
2022/12/29 05:12:42;;;;;;;;;;;;;;;16.08;51.68;99087.25;4953889;28;7339;-73
2022/12/29 05:15:10;;;;;;;;;;;;;;;16.08;51.49;99087.25;4960096;28;6772;-72
2022/12/29 05:17:36;;;;;;;;;;;;;;;16.07;51.10;99101.03;4945952;28;7663;-73
2022/12/29 05:20:02;;;;;;;;;;;;;;;16.02;51.50;99095.84;4987882;28;6971;-73
2022/12/29 05:22:28;;;;;;;;;;;;;;;16.02;50.96;99102.72;4959643;28;6999;-73
2022/12/29 05:24:54;;;;;;;;;;;;;;;16.01;51.01;99106.16;4952086;28;10775;-73
2022/12/29 05:27:19;;;;;;;;;;;;;;;16.00;51.27;99114.78;4952829;28;6768;-72
2022/12/29 05:29:45;;;;;;;;;;;;;;;15.93;51.07;99114.78;4959895;28;7659;-73
2022/12/29 05:32:10;;;;;;;;;;;;;;;15.90;50.76;99119.91;4955727;28;6780;-73
2022/12/29 05:34:36;;;;;;;;;;;;;;;15.87;50.97;99103.47;4957614;28;6864;-73
2022/12/29 05:37:02;;;;;;;;;;;;;;;15.82;50.57;99114.66;4976043;28;6996;-73
2022/12/29 05:39:29;;;;;;;;;;;;;;;15.80;50.77;99118.97;4958048;28;6792;-73
2022/12/29 05:41:54;;;;;;;;;;;;;;;15.76;50.72;99111.19;4958479;28;6820;-73
2022/12/29 05:44:20;;;;;;;;;;;;;;;15.71;51.38;99130.94;4988475;28;6768;-73
2022/12/29 05:46:46;;;;;;;;;;;;;;;15.67;50.64;99125.75;4957784;28;6780;-73
2022/12/29 05:49:11;;;;;;;;;;;;;;;15.68;50.51;99112.00;4972953;28;8735;-74
2022/12/29 05:51:37;;;;;;;;;;;;;;;15.63;51.04;99123.16;4978331;28;6953;-74
2022/12/29 05:54:03;;;;;;;;;;;;;;;15.62;51.20;99124.84;4969405;28;7287;-72
2022/12/29 05:56:29;;;;;;;;;;;;;;;15.57;50.57;99125.69;4954638;28;6876;-73
2022/12/29 05:58:54;;;;;;;;;;;;;;;15.56;50.45;99119.66;4988699;28;6788;-73
2022/12/29 06:01:20;;;;;;;;;;;;;;;15.52;51.07;99117.91;4985769;28;6776;-73
2022/12/29 06:03:45;;;;;;;;;;;;;;;15.46;50.69;99138.53;4980983;28;7188;-73
2022/12/29 06:06:11;;;;;;;;;;;;;;;15.41;50.74;99131.59;4981029;28;7863;-73
2022/12/29 06:08:37;;;;;;;;;;;;;;;15.39;50.70;99130.72;4957061;28;6788;-73
2022/12/29 06:11:02;;;;;;;;;;;;;;;15.40;50.53;99140.19;4987844;28;6772;-73
2022/12/29 06:13:28;;;;;;;;;;;;;;;15.38;50.68;99147.06;4960781;28;7137;-72
2022/12/29 06:15:54;;;;;;;;;;;;;;;15.43;50.77;99133.31;4964895;28;6932;-72
2022/12/29 06:18:19;;;;;;;;;;;;;;;15.41;50.82;99154.81;4964365;28;7558;-73
2022/12/29 06:20:46;;;;;;;;;;;;;;;15.45;51.00;99155.72;4982513;28;6840;-73
2022/12/29 06:23:14;;;;;;;;;;;;;;;15.46;50.39;99159.19;4964549;28;6784;-73
2022/12/29 06:25:40;;;;;;;;;;;;;;;15.47;50.45;99168.66;4959934;28;6804;-72
2022/12/29 06:28:06;;;;;;;;;;;;;;;15.50;50.44;99166.09;4978742;28;7996;-73
2022/12/29 06:30:32;;;;;;;;;;;;;;;15.51;50.71;99171.28;4955284;28;7030;-72
2022/12/29 06:32:59;;;;;;;;;;;;;;;15.55;50.70;99161.84;4980177;28;8036;-72
2022/12/29 06:35:24;;;;;;;;;;;;;;;15.57;50.41;99182.50;4966910;28;7625;-73
2022/12/29 06:37:50;;;;;;;;;;;;;;;15.61;50.91;99174.78;4960506;28;6776;-73
2022/12/29 06:40:16;;;;;;;;;;;;;;;15.67;50.86;99173.97;4959374;28;6792;-73
2022/12/29 06:42:42;;;;;;;;;;;;;;;15.74;49.90;99174.88;4965019;28;7120;-73
2022/12/29 06:45:07;;;;;;;;;;;;;;;15.78;50.22;99181.78;4991749;28;7582;-72
2022/12/29 06:47:34;;;;;;;;;;;;;;;15.75;50.31;99189.53;4962761;28;7056;-73
2022/12/29 06:50:00;;;;;;;;;;;;;;;15.75;50.06;99192.13;4981668;28;8427;-72
2022/12/29 06:52:28;;;;;;;;;;;;;;;15.76;50.23;99188.69;4965288;28;6792;-73
2022/12/29 06:54:54;;;;;;;;;;;;;;;15.76;49.80;99204.19;4976048;28;7434;-73
2022/12/29 06:57:21;;;;;;;;;;;;;;;15.77;49.97;99195.56;4958294;28;6875;-72
2022/12/29 06:59:47;;;;;;;;;;;;;;;15.76;50.18;99210.19;4985924;28;7008;-73
2022/12/29 07:02:18;;;;;;;;;;;;;;;15.71;49.57;99203.25;4951824;28;7262;-73
2022/12/29 07:04:43;;;;;;;;;;;;;;;15.66;49.97;99208.38;4967115;28;6811;-73
2022/12/29 07:07:09;;;;;;;;;;;;;;;15.61;50.57;99221.25;4956682;28;6776;-73
2022/12/29 07:09:34;;;;;;;;;;;;;;;15.59;50.22;99219.50;4963646;28;6784;-73
2022/12/29 07:12:00;;;;;;;;;;;;;;;15.59;50.23;99217.81;4978767;28;6929;-73
2022/12/29 07:14:26;;;;;;;;;;;;;;;15.57;50.28;99232.44;4961419;28;6922;-73
2022/12/29 07:16:51;;;;;;;;;;;;;;;15.57;49.68;99219.53;4964405;28;6837;-72
2022/12/29 07:19:17;;;;;;;;;;;;;;;15.59;50.08;99241.06;4958824;28;7064;-73
2022/12/29 07:21:42;;;;;;;;;;;;;;;15.62;49.99;99235.91;4955959;28;6780;-73
2022/12/29 07:24:09;;;;;;;;;;;;;;;15.59;49.80;99232.44;4989132;28;6952;-72
2022/12/29 07:26:36;;;;;;;;;;;;;;;15.52;50.16;99239.25;4962680;28;6788;-73
2022/12/29 07:29:02;;;;;;;;;;;;;;;15.46;50.04;99232.31;4964611;28;6789;-72
2022/12/29 07:31:28;;;;;;;;;;;;;;;15.43;50.27;99245.22;4958015;28;6808;-72
2022/12/29 07:33:54;;;;;;;;;;;;;;;15.39;49.74;99241.72;4951727;28;7417;-72
2022/12/29 07:36:20;;;;;;;;;;;;;;;15.36;49.91;99233.97;4959448;28;6868;-73
2022/12/29 07:38:45;;;;;;;;;;;;;;;15.37;49.54;99246.03;4972756;28;7067;-73
2022/12/29 07:41:11;;;;;;;;;;;;;;;15.36;49.49;99246.88;4958194;28;6796;-73
2022/12/29 07:43:36;;;;;;;;;;;;;;;15.39;50.25;99243.44;4966977;28;6768;-73
2022/12/29 07:46:02;;;;;;;;;;;;;;;15.41;49.66;99247.78;4967094;28;8695;-73
2022/12/29 07:48:28;;;;;;;;;;;;;;;15.47;49.41;99246.13;4959568;28;6976;-73
2022/12/29 07:50:53;;;;;;;;;;;;;;;15.51;49.60;99255.59;4981100;28;7672;-72
2022/12/29 07:53:19;;;;;;;;;;;;;;;15.56;49.94;99243.63;4968759;28;6772;-72
2022/12/29 07:55:45;;;;;;;;;;;;;;;15.55;49.54;99253.06;4955559;28;7027;-73
2022/12/29 07:58:11;;;;;;;;;;;;;;;15.54;49.15;99250.47;4957426;28;7346;-73
2022/12/29 08:00:38;;;;;;;;;;;;;;;15.57;49.78;99250.50;4937219;28;6772;-73
2022/12/29 08:03:04;;;;;;;;;;;;;;;15.58;49.23;99257.41;4919143;28;7457;-73
2022/12/29 08:05:32;;;;;;;;;;;;;;;15.59;49.08;99248.81;4952425;28;7973;-73
2022/12/29 08:07:57;;;;;;;;;;;;;;;15.56;48.96;99251.38;4939171;28;7535;-72
2022/12/29 08:10:23;;;;;;;;;;;;;;;15.62;49.39;99281.53;4957275;28;7015;-73
2022/12/29 08:12:49;;;;;;;;;;;;;;;15.64;49.13;99285.84;4915594;28;6993;-73
2022/12/29 08:15:14;;;;;;;;;;;;;;;15.63;48.96;99285.84;4958665;28;6760;-73
2022/12/29 08:17:40;;;;;;;;;;;;;;;15.64;49.11;99288.44;4954841;28;7022;-73
2022/12/29 08:20:06;;;;;;;;;;;;;;;15.61;49.32;99285.81;4956006;28;6827;-73
2022/12/29 08:22:33;;;;;;;;;;;;;;;15.60;48.74;99281.53;4923971;28;8910;-73
2022/12/29 08:24:59;;;;;;;;;;;;;;;15.60;49.07;99296.16;4962115;28;6780;-74
2022/12/29 08:27:25;;;;;;;;;;;;;;;15.64;49.03;99297.91;4939633;28;6784;-73
2022/12/29 08:29:51;;;;;;;;;;;;;;;15.61;48.95;99291.00;4927224;28;6861;-73
2022/12/29 08:32:17;;;;;;;;;;;;;;;15.63;48.40;99288.44;4969377;28;7328;-73
2022/12/29 08:34:43;;;;;;;;;;;;;;;15.60;49.04;99285.84;4964376;28;7297;-73
2022/12/29 08:37:08;;;;;;;;;;;;;;;15.53;48.83;99308.13;4956423;28;6780;-73
2022/12/29 08:39:34;;;;;;;;;;;;;;;15.48;48.69;99284.00;4972930;28;6840;-73
2022/12/29 08:42:00;;;;;;;;;;;;;;;15.35;48.25;99298.47;4940748;28;7252;-73
2022/12/29 08:44:25;;;;;;;;;;;;;;;15.37;48.76;99299.34;4956931;28;7106;-73
2022/12/29 08:46:51;;;;;;;;;;;;;;;15.39;49.12;99302.81;4941439;28;6983;-72
2022/12/29 08:49:17;;;;;;;;;;;;;;;15.43;49.44;99295.97;4962287;28;6780;-73
2022/12/29 08:51:42;;;;;;;;;;;;;;;15.39;49.53;99313.13;4955718;28;6780;-73
2022/12/29 08:54:08;;;;;;;;;;;;;;;15.38;48.88;99320.03;4962283;28;6851;-73
2022/12/29 08:56:33;;;;;;;;;;;;;;;15.37;48.43;99315.72;4982662;28;7216;-73
2022/12/29 08:58:59;;;;;;;;;;;;;;;15.39;48.77;99319.19;4960417;28;6780;-73
2022/12/29 09:01:25;;;;;;;;;;;;;;;15.39;48.77;99316.59;4991237;28;6918;-72
2022/12/29 09:03:50;;;;;;;;;;;;;;;15.40;48.17;99314.88;4962390;28;6856;-73
2022/12/29 09:06:17;;;;;;;;;;;;;;;15.43;48.14;99320.09;4982006;28;6798;-73
2022/12/29 09:08:44;;;;;;;;;;;;;;;15.52;48.23;99321.88;4961947;28;7380;-76
2022/12/29 09:11:16;;;;;;;;;;;;;;;15.55;48.01;99315.03;4993774;28;6804;-73
2022/12/29 09:13:42;;;;;;;;;;;;;;;15.59;48.04;99327.97;4992141;28;6994;-72
2022/12/29 09:16:07;;;;;;;;;;;;;;;15.58;47.86;99341.75;4957459;28;7032;-72
2022/12/29 09:18:34;;;;;;;;;;;;;;;15.61;47.12;99334.06;4958241;28;7081;-73
2022/12/29 09:21:03;;;;;;;;;;;;;;;15.59;47.20;99331.44;4964412;28;7058;-72
2022/12/29 09:23:29;;;;;;;;;;;;;;;15.63;47.11;99329.75;4990289;28;7852;-73
2022/12/29 09:25:56;;;;;;;;;;;;;;;15.66;47.20;99348.75;4965466;28;6789;-73
2022/12/29 09:28:22;;;;;;;;;;;;;;;15.66;46.58;99338.41;4990069;28;6780;-73
2022/12/29 09:30:48;;;;;;;;;;;;;;;15.66;46.20;99341.00;4965016;28;6808;-73
2022/12/29 09:33:15;;;;;;;;;;;;;;;15.68;45.94;99338.41;4963324;28;6824;-73
2022/12/29 09:35:50;;;;;;;;;;;;;;;15.67;46.31;99337.56;4960400;28;7129;-73
2022/12/29 09:38:16;;;;;;;;;;;;;;;15.69;46.36;99327.22;4982371;28;6986;-73
2022/12/29 09:40:49;;;;;;;;;;;;;;;15.69;46.34;99328.09;4964595;28;6796;-74
2022/12/29 09:43:29;;;;;;;;;;;;;;;15.73;45.81;99331.59;4987161;28;7493;-73
2022/12/29 09:46:27;;;;;;;;;;;;;;;15.74;45.86;99332.44;4963559;28;6824;-73
2022/12/29 09:49:31;;;;;;;;;;;;;;;15.80;45.73;99353.16;4961949;28;6816;-73
2022/12/29 09:52:06;;;;;;;;;;;;;;;15.85;45.55;99353.22;4978757;28;7138;-73
2022/12/29 09:54:48;;;;;;;;;;;;;;;15.91;45.80;99338.66;4949542;28;6996;-73
2022/12/29 09:57:48;;;;;;;;;;;;;;;15.90;45.22;99336.94;4961616;28;7178;-73
2022/12/29 10:00:18;;;;;;;;;;;;;;;15.82;45.17;99348.88;4959477;28;6943;-73
2022/12/29 10:02:54;;;;;;;;;;;;;;;15.76;45.13;99328.16;4979170;28;7191;-73
2022/12/29 10:05:43;;;;;;;;;;;;;;;15.69;45.28;99364.25;4965743;28;6804;-73
2022/12/29 10:08:33;;;;;;;;;;;;;;;15.66;45.56;99364.25;4957612;28;6804;-72
2022/12/29 10:11:49;;;;;;;;;;;;;;;15.61;45.45;99363.31;4990166;28;6788;-73
2022/12/29 10:15:02;;;;;;;;;;;;;;;15.55;45.33;99360.69;4959268;28;7200;-73
2022/12/29 10:17:46;;;;;;;;;;;;;;;15.57;45.65;99366.72;4988872;28;7001;-72
2022/12/29 10:20:49;;;;;;;;;;;;;;;15.63;45.12;99379.69;4978271;28;7102;-73
2022/12/29 10:23:30;;;;;;;;;;;;;;;15.70;45.53;99357.38;4958763;28;7020;-73
2022/12/29 10:25:59;;;;;;;;;;;;;;;15.68;44.99;99383.19;4959484;28;7243;-73
2022/12/29 10:28:40;;;;;;;;;;;;;;;15.71;45.06;99351.38;4963916;28;7012;-73
2022/12/29 10:31:20;;;;;;;;;;;;;;;15.73;44.75;99383.25;4977396;28;6816;-73
2022/12/29 10:34:01;;;;;;;;;;;;;;;15.84;45.19;99380.78;4976788;28;8663;-73
2022/12/29 10:36:47;;;;;;;;;;;;;;;15.87;44.50;99385.09;4964229;28;6812;-73
2022/12/29 10:39:32;;;;;;;;;;;;;;;15.89;44.46;99384.25;4964684;28;6979;-72
2022/12/29 10:42:33;;;;;;;;;;;;;;;15.90;44.38;99370.53;4964200;28;6804;-72
2022/12/29 10:45:00;;;;;;;;;;;;;;;15.91;44.37;99386.91;4954614;28;6820;-73
2022/12/29 10:47:34;;;;;;;;;;;;;;;15.97;44.38;99402.44;4979602;28;6800;-73
2022/12/29 10:50:03;;;;;;;;;;;;;;;16.02;44.29;99381.81;4988686;28;7230;-73
2022/12/29 10:52:33;;;;;;;;;;;;;;;16.08;44.29;99390.53;4995039;28;6864;-72
2022/12/29 10:55:05;;;;;;;;;;;;;;;16.17;44.25;99392.31;4966266;28;6935;-73
2022/12/29 10:57:44;;;;;;;;;;;;;;;16.22;43.83;99385.47;4992206;28;7709;-72
2022/12/29 11:00:20;;;;;;;;;;;;;;;16.25;43.45;99402.72;4981398;28;7415;-73
2022/12/29 11:03:23;;;;;;;;;;;;;;;16.28;43.42;99399.28;4967617;28;6931;-73
2022/12/29 11:06:12;;;;;;;;;;;;;;;16.26;43.78;99401.00;4990857;28;7035;-72
2022/12/29 11:09:12;;;;;;;;;;;;;;;16.23;43.51;99391.50;4978681;28;7019;-72
2022/12/29 11:11:38;;;;;;;;;;;;;;;16.28;43.40;99430.31;4960983;28;6804;-73
2022/12/29 11:14:20;;;;;;;;;;;;;;;16.32;43.38;99429.47;4963173;28;6776;-73
2022/12/29 11:17:01;;;;;;;;;;;;;;;16.30;43.43;99429.50;4982059;28;7010;-73
2022/12/29 11:19:33;;;;;;;;;;;;;;;16.33;43.07;99420.91;4958326;28;7269;-74
2022/12/29 11:22:24;;;;;;;;;;;;;;;16.29;43.38;99432.06;4958821;28;7153;-72
2022/12/29 11:24:54;;;;;;;;;;;;;;;16.30;43.30;99434.66;4966945;28;7697;-73
2022/12/29 11:27:26;;;;;;;;;;;;;;;16.34;42.95;99436.41;4950896;28;7194;-72
2022/12/29 11:29:53;;;;;;;;;;;;;;;16.36;42.92;99444.19;4994693;28;6811;-73
2022/12/29 11:32:26;;;;;;;;;;;;;;;16.38;43.16;99438.19;4980318;28;7011;-72
2022/12/29 11:34:52;;;;;;;;;;;;;;;16.38;43.02;99437.31;4982269;28;7256;-73
2022/12/29 11:37:38;;;;;;;;;;;;;;;16.41;42.32;99446.81;4995586;28;6784;-73
2022/12/29 11:40:16;;;;;;;;;;;;;;;16.48;42.56;99443.44;4996038;28;6880;-74
2022/12/29 11:42:48;;;;;;;;;;;;;;;16.56;42.34;99459.00;4997418;28;6959;-72
2022/12/29 11:45:25;;;;;;;;;;;;;;;16.51;42.14;99453.81;4963423;28;6926;-74
2022/12/29 11:47:58;;;;;;;;;;;;;;;16.49;42.48;99461.53;4967457;28;6934;-73
2022/12/29 11:50:31;;;;;;;;;;;;;;;16.40;42.25;99460.59;4996699;28;6819;-73
2022/12/29 11:53:03;;;;;;;;;;;;;;;16.32;42.35;99460.50;4995393;28;7374;-73
2022/12/29 11:55:30;;;;;;;;;;;;;;;16.30;42.19;99469.97;4960503;28;7093;-73
2022/12/29 11:58:02;;;;;;;;;;;;;;;16.26;42.44;99463.91;4994227;28;7027;-73
2022/12/29 12:00:34;;;;;;;;;;;;;;;16.23;42.40;99458.72;4993897;28;7073;-73
2022/12/29 12:03:14;;;;;;;;;;;;;;;16.21;42.46;99474.19;4960766;28;6943;-73
2022/12/29 12:05:53;;;;;;;;;;;;;;;16.18;42.54;99471.59;4990039;28;7908;-73
2022/12/29 12:08:38;;;;;;;;;;;;;;;16.14;42.44;99463.78;4982084;28;7247;-73
2022/12/29 12:11:36;;;;;;;;;;;;;;;16.11;42.31;99469.78;4967075;28;7328;-73
2022/12/29 12:14:31;;;;;;;;;;;;;;;16.08;42.22;99464.59;4963844;28;6796;-73
2022/12/29 12:17:10;;;;;;;;;;;;;;;16.10;42.92;99478.41;4958868;28;6808;-73
2022/12/29 12:19:58;;;;;;;;;;;;;;;16.08;42.74;99460.31;4963507;28;6820;-72
2022/12/29 12:22:37;;;;;;;;;;;;;;;16.07;42.62;99480.97;4965609;28;7901;-73
2022/12/29 12:25:34;;;;;;;;;;;;;;;16.03;42.73;99471.41;4965635;28;6808;-73
2022/12/29 12:28:34;;;;;;;;;;;;;;;16.02;42.60;99480.03;4978292;28;7255;-73
2022/12/29 12:31:06;;;;;;;;;;;;;;;16.01;43.12;99461.09;4987396;28;6816;-72
2022/12/29 12:33:41;;;;;;;;;;;;;;;16.01;42.86;99473.13;4988817;28;7391;-73
2022/12/29 12:36:51;;;;;;;;;;;;;;;16.01;42.82;99475.72;4990519;28;7141;-72
2022/12/29 12:40:02;;;;;;;;;;;;;;;16.00;42.89;99479.16;4966057;28;6942;-73
2022/12/29 12:42:50;;;;;;;;;;;;;;;15.99;42.82;99485.16;4986761;28;6863;-72
2022/12/29 12:45:45;;;;;;;;;;;;;;;15.98;43.07;99480.84;4965528;28;7182;-72
2022/12/29 12:48:42;;;;;;;;;;;;;;;15.98;43.33;99486.88;4973246;28;7019;-73
2022/12/29 12:51:37;;;;;;;;;;;;;;;15.96;43.31;99462.75;4981437;28;6974;-73
2022/12/29 12:54:54;;;;;;;;;;;;;;;15.95;43.16;99486.84;4990080;28;7003;-73
2022/12/29 12:58:08;;;;;;;;;;;;;;;15.95;42.77;99494.59;4960591;28;7147;-73
2022/12/29 13:00:56;;;;;;;;;;;;;;;16.00;42.64;99487.78;4961085;28;7050;-72
2022/12/29 13:04:00;;;;;;;;;;;;;;;16.00;42.61;99489.50;4959485;28;7042;-72
2022/12/29 13:07:03;;;;;;;;;;;;;;;15.98;42.94;99488.59;4961432;28;6808;-72
2022/12/29 13:10:00;;;;;;;;;;;;;;;15.94;42.66;99496.34;4963338;28;6800;-73
2022/12/29 13:12:46;;;;;;;;;;;;;;;15.91;42.94;99509.19;4961774;28;6820;-73
2022/12/29 13:15:41;;;;;;;;;;;;;;;15.86;42.83;99497.94;4957243;28;7002;-72
2022/12/29 13:18:33;;;;;;;;;;;;;;;15.83;42.85;99495.28;4956912;28;6804;-73
2022/12/29 13:21:41;;;;;;;;;;;;;;;15.86;43.14;99499.63;4965778;28;6804;-72
2022/12/29 13:25:13;;;;;;;;;;;;;;;15.86;43.47;99505.69;4959290;28;6812;-72
2022/12/29 13:28:16;;;;;;;;;;;;;;;15.79;43.05;99509.03;4919398;28;8037;-74
2022/12/29 13:31:00;;;;;;;;;;;;;;;15.77;43.35;99498.66;4959016;28;6803;-72
2022/12/29 13:33:58;;;;;;;;;;;;;;;15.78;43.15;99508.16;4961494;28;7134;-72
2022/12/29 13:36:44;;;;;;;;;;;;;;;15.77;43.22;99500.41;4965390;28;6884;-73
2022/12/29 13:39:26;;;;;;;;;;;;;;;15.73;43.41;99503.78;4982328;28;7044;-73
2022/12/29 13:41:55;;;;;;;;;;;;;;;15.71;43.18;99527.03;4965966;28;7924;-72
2022/12/29 13:44:34;;;;;;;;;;;;;;;15.65;43.56;99506.28;4992054;28;6816;-72
2022/12/29 13:47:17;;;;;;;;;;;;;;;15.63;43.41;99529.47;4960693;28;6804;-72
2022/12/29 13:49:45;;;;;;;;;;;;;;;15.58;43.55;99512.19;4963086;28;6812;-73
2022/12/29 13:53:02;;;;;;;;;;;;;;;15.58;43.46;99526.00;4965394;28;7039;-73
2022/12/29 13:55:33;;;;;;;;;;;;;;;15.52;43.60;99523.31;4945109;28;7091;-72
2022/12/29 13:58:24;;;;;;;;;;;;;;;15.50;43.53;99530.19;4927250;28;8288;-73
2022/12/29 14:01:10;;;;;;;;;;;;;;;15.48;43.69;99524.97;4964222;28;6800;-72
2022/12/29 14:03:54;;;;;;;;;;;;;;;15.46;43.16;99531.00;4991477;28;7145;-72
2022/12/29 14:06:28;;;;;;;;;;;;;;;15.39;43.70;99525.72;4965438;28;7244;-72
2022/12/29 14:09:00;;;;;;;;;;;;;;;15.39;43.60;99538.63;4964102;28;7020;-72